EWG42M EDLP-LEPA
Flight info
| Callsign | EWG42M |
|---|---|
| Flight time | 2h 8m |
| Altitude | 38000 |
| Route | GISDI1X GISDI Y13 ALEXU N850 GISEM DCT BOMBI DCT GIGET DCT ABUKA DCT KRH DCT NATOR DCT LUTIX DCT BENOT DCT NEMOS DCT GEVEA DCT INCUS DCT BALSI DCT RETNO DCT TUPOX DCT MTG DCT DIVKO DCT VATIR N852 VERSO L129 LUNIK |
| Aircraft | A319/M-SDE3FGHIRWY/LB1 |
Departure
| Time | 2026-05-08 12:48 |
|---|---|
| Airport | Paderborn Lippstadt Airport (EDLP) |
Arrival
| Time | 2026-05-08 14:57 |
|---|---|
| Airport | Palma de Mallorca Airport (LEPA) |
| Time | Latitude | Longitude | Altitude | Speed | Heading |
|---|---|---|---|---|---|
| 2026-05-08 12:22 | 51.61146 | 8.62004 | 731 ft | 0 kts | 147° |
| 2026-05-08 12:37 | 51.61146 | 8.62003 | 731 ft | 0 kts | 147° |
| 2026-05-08 12:37 | 51.61154 | 8.61995 | 731 ft | 2 kts | 147° |
| 2026-05-08 12:37 | 51.61166 | 8.61982 | 730 ft | 2 kts | 147° |
| 2026-05-08 12:38 | 51.61179 | 8.61969 | 729 ft | 2 kts | 157° |
| 2026-05-08 12:38 | 51.61194 | 8.61968 | 728 ft | 2 kts | 199° |
| 2026-05-08 12:38 | 51.61206 | 8.61981 | 727 ft | 2 kts | 236° |
| 2026-05-08 12:38 | 51.61211 | 8.61996 | 727 ft | 0 kts | 240° |
| 2026-05-08 12:39 | 51.61212 | 8.61998 | 727 ft | 0 kts | 238° |
| 2026-05-08 12:41 | 51.61211 | 8.61995 | 727 ft | 3 kts | 238° |
| 2026-05-08 12:42 | 51.61153 | 8.61851 | 728 ft | 15 kts | 237° |
| 2026-05-08 12:42 | 51.61089 | 8.61696 | 726 ft | 14 kts | 237° |
| 2026-05-08 12:42 | 51.61040 | 8.61577 | 727 ft | 9 kts | 236° |
| 2026-05-08 12:42 | 51.61005 | 8.61489 | 728 ft | 9 kts | 238° |
| 2026-05-08 12:43 | 51.60967 | 8.61396 | 728 ft | 8 kts | 236° |
| 2026-05-08 12:43 | 51.60963 | 8.61289 | 726 ft | 11 kts | 283° |
| 2026-05-08 12:43 | 51.60980 | 8.61160 | 722 ft | 10 kts | 281° |
| 2026-05-08 12:43 | 51.60966 | 8.61027 | 719 ft | 13 kts | 235° |
| 2026-05-08 12:44 | 51.60912 | 8.60897 | 719 ft | 14 kts | 237° |
| 2026-05-08 12:44 | 51.60860 | 8.60769 | 719 ft | 9 kts | 237° |
| 2026-05-08 12:44 | 51.60822 | 8.60676 | 718 ft | 10 kts | 237° |
| 2026-05-08 12:44 | 51.60778 | 8.60571 | 719 ft | 11 kts | 237° |
| 2026-05-08 12:45 | 51.60755 | 8.60447 | 717 ft | 10 kts | 280° |
| 2026-05-08 12:45 | 51.60768 | 8.60402 | 715 ft | 0 kts | 307° |
| 2026-05-08 12:47 | 51.60770 | 8.60398 | 715 ft | 4 kts | 310° |
| 2026-05-08 12:47 | 51.60822 | 8.60350 | 711 ft | 11 kts | 350° |
| 2026-05-08 12:47 | 51.60893 | 8.60376 | 708 ft | 10 kts | 43° |
| 2026-05-08 12:47 | 51.60906 | 8.60400 | 708 ft | 1 kts | 55° |
| 2026-05-08 12:48 | 51.60957 | 8.60525 | 708 ft | 44 kts | 57° |
| 2026-05-08 12:48 | 51.61263 | 8.61278 | 709 ft | 113 kts | 57° |
| 2026-05-08 12:48 | 51.61805 | 8.62601 | 751 ft | 163 kts | 59° |
| 2026-05-08 12:48 | 51.62396 | 8.64077 | 1494 ft | 156 kts | 59° |
| 2026-05-08 12:49 | 51.62964 | 8.65463 | 2317 ft | 148 kts | 58° |
| 2026-05-08 12:49 | 51.63531 | 8.66849 | 2806 ft | 156 kts | 59° |
| 2026-05-08 12:49 | 51.64066 | 8.68465 | 3182 ft | 172 kts | 71° |
| 2026-05-08 12:49 | 51.64368 | 8.70447 | 3590 ft | 189 kts | 79° |
| 2026-05-08 12:50 | 51.64596 | 8.72645 | 4013 ft | 207 kts | 88° |
| 2026-05-08 12:50 | 51.64283 | 8.74963 | 4414 ft | 227 kts | 116° |
| 2026-05-08 12:50 | 51.63240 | 8.76981 | 4876 ft | 249 kts | 145° |
| 2026-05-08 12:50 | 51.61570 | 8.77960 | 5414 ft | 269 kts | 174° |
| 2026-05-08 12:51 | 51.59685 | 8.78090 | 6369 ft | 271 kts | 177° |
| 2026-05-08 12:51 | 51.55901 | 8.78422 | 8184 ft | 278 kts | 176° |
| 2026-05-08 12:51 | 51.53966 | 8.78620 | 9064 ft | 282 kts | 177° |
| 2026-05-08 12:52 | 51.51989 | 8.78824 | 9914 ft | 286 kts | 177° |
| 2026-05-08 12:52 | 51.47905 | 8.79242 | 11160 ft | 309 kts | 177° |
| 2026-05-08 12:52 | 51.45701 | 8.79467 | 11546 ft | 327 kts | 177° |
| 2026-05-08 12:53 | 51.43378 | 8.79706 | 12079 ft | 340 kts | 177° |
| 2026-05-08 12:53 | 51.40997 | 8.79953 | 12832 ft | 344 kts | 177° |
| 2026-05-08 12:53 | 51.38618 | 8.80200 | 13590 ft | 347 kts | 178° |
| 2026-05-08 12:53 | 51.36206 | 8.80450 | 14323 ft | 350 kts | 178° |
| 2026-05-08 12:54 | 51.33783 | 8.80700 | 15030 ft | 354 kts | 178° |
| 2026-05-08 12:54 | 51.31316 | 8.80953 | 15705 ft | 358 kts | 178° |
| 2026-05-08 12:54 | 51.28840 | 8.81390 | 16356 ft | 364 kts | 170° |
| 2026-05-08 12:54 | 51.26408 | 8.82590 | 17003 ft | 370 kts | 159° |
| 2026-05-08 12:55 | 51.24127 | 8.84529 | 17627 ft | 376 kts | 150° |
| 2026-05-08 12:55 | 51.21929 | 8.86738 | 18237 ft | 380 kts | 149° |
| 2026-05-08 12:55 | 51.19688 | 8.89031 | 18846 ft | 384 kts | 149° |
| 2026-05-08 12:55 | 51.17456 | 8.91299 | 19459 ft | 387 kts | 149° |
| 2026-05-08 12:56 | 51.15158 | 8.93611 | 20089 ft | 390 kts | 149° |
| 2026-05-08 12:56 | 51.12821 | 8.95751 | 20680 ft | 392 kts | 159° |
| 2026-05-08 12:56 | 51.10207 | 8.96868 | 21251 ft | 391 kts | 176° |
| 2026-05-08 12:56 | 51.07492 | 8.96759 | 21822 ft | 389 kts | 191° |
| 2026-05-08 12:57 | 51.04832 | 8.96005 | 22396 ft | 392 kts | 193° |
| 2026-05-08 12:57 | 51.02168 | 8.95126 | 22911 ft | 395 kts | 194° |
| 2026-05-08 12:57 | 50.99482 | 8.94186 | 23429 ft | 398 kts | 194° |
| 2026-05-08 12:57 | 50.96788 | 8.93252 | 23944 ft | 401 kts | 194° |
| 2026-05-08 12:58 | 50.94055 | 8.92320 | 24444 ft | 404 kts | 194° |
| 2026-05-08 12:58 | 50.91297 | 8.91393 | 24929 ft | 407 kts | 194° |
| 2026-05-08 12:58 | 50.88529 | 8.90470 | 25411 ft | 409 kts | 194° |
| 2026-05-08 12:58 | 50.85724 | 8.89537 | 25880 ft | 411 kts | 194° |
| 2026-05-08 12:59 | 50.82959 | 8.88620 | 26329 ft | 414 kts | 194° |
| 2026-05-08 12:59 | 50.80138 | 8.87662 | 26767 ft | 416 kts | 194° |
| 2026-05-08 12:59 | 50.77275 | 8.86665 | 27199 ft | 419 kts | 194° |
| 2026-05-08 12:59 | 50.74431 | 8.85673 | 27627 ft | 421 kts | 194° |
| 2026-05-08 13:00 | 50.71596 | 8.84688 | 28040 ft | 423 kts | 194° |
| 2026-05-08 13:00 | 50.68704 | 8.83688 | 28451 ft | 425 kts | 194° |
| 2026-05-08 13:00 | 50.65801 | 8.82813 | 28859 ft | 428 kts | 191° |
| 2026-05-08 13:00 | 50.62851 | 8.82183 | 29265 ft | 431 kts | 188° |
| 2026-05-08 13:01 | 50.59840 | 8.81807 | 29654 ft | 434 kts | 185° |
| 2026-05-08 13:01 | 50.56832 | 8.81677 | 30008 ft | 436 kts | 183° |
| 2026-05-08 13:01 | 50.53795 | 8.81581 | 30382 ft | 438 kts | 183° |
| 2026-05-08 13:01 | 50.50789 | 8.81480 | 30853 ft | 437 kts | 183° |
| 2026-05-08 13:02 | 50.47734 | 8.81377 | 31314 ft | 435 kts | 183° |
| 2026-05-08 13:02 | 50.44751 | 8.81277 | 31739 ft | 434 kts | 183° |
| 2026-05-08 13:02 | 50.41733 | 8.81176 | 32152 ft | 433 kts | 183° |
| 2026-05-08 13:02 | 50.38735 | 8.81076 | 32556 ft | 432 kts | 184° |
| 2026-05-08 13:03 | 50.35740 | 8.80977 | 32957 ft | 431 kts | 184° |
| 2026-05-08 13:03 | 50.32740 | 8.80877 | 33353 ft | 430 kts | 183° |
| 2026-05-08 13:03 | 50.29787 | 8.80779 | 33737 ft | 429 kts | 183° |
| 2026-05-08 13:03 | 50.26820 | 8.80682 | 34103 ft | 428 kts | 183° |
| 2026-05-08 13:04 | 50.23838 | 8.80584 | 34462 ft | 427 kts | 183° |
| 2026-05-08 13:04 | 50.20896 | 8.80487 | 34756 ft | 425 kts | 183° |
| 2026-05-08 13:04 | 50.17936 | 8.80391 | 34976 ft | 425 kts | 183° |
| 2026-05-08 13:04 | 50.15005 | 8.80297 | 35320 ft | 425 kts | 183° |
| 2026-05-08 13:05 | 50.12056 | 8.80201 | 35567 ft | 425 kts | 184° |
| 2026-05-08 13:05 | 50.09089 | 8.80104 | 35797 ft | 425 kts | 184° |
| 2026-05-08 13:05 | 50.06147 | 8.79914 | 36017 ft | 425 kts | 186° |
| 2026-05-08 13:05 | 50.03224 | 8.79478 | 36232 ft | 424 kts | 189° |
| 2026-05-08 13:06 | 50.00311 | 8.78865 | 36419 ft | 425 kts | 190° |
| 2026-05-08 13:06 | 49.97363 | 8.78252 | 36587 ft | 426 kts | 190° |
| 2026-05-08 13:06 | 49.94441 | 8.77648 | 36748 ft | 428 kts | 190° |
| 2026-05-08 13:06 | 49.91472 | 8.77035 | 36895 ft | 429 kts | 190° |
| 2026-05-08 13:07 | 49.88551 | 8.76430 | 37044 ft | 431 kts | 190° |
| 2026-05-08 13:07 | 49.85553 | 8.75811 | 37198 ft | 432 kts | 190° |
| 2026-05-08 13:07 | 49.82597 | 8.75200 | 37349 ft | 433 kts | 190° |
| 2026-05-08 13:07 | 49.79578 | 8.74578 | 37493 ft | 435 kts | 190° |
| 2026-05-08 13:08 | 49.76595 | 8.73964 | 37632 ft | 436 kts | 190° |
| 2026-05-08 13:08 | 49.73596 | 8.73348 | 37765 ft | 437 kts | 190° |
| 2026-05-08 13:08 | 49.70594 | 8.72731 | 37895 ft | 438 kts | 190° |
| 2026-05-08 13:08 | 49.67564 | 8.72111 | 38023 ft | 439 kts | 190° |
| 2026-05-08 13:09 | 49.61500 | 8.70886 | 38063 ft | 441 kts | 190° |
| 2026-05-08 13:09 | 49.55413 | 8.69642 | 38061 ft | 441 kts | 193° |
| 2026-05-08 13:10 | 49.49601 | 8.66839 | 38160 ft | 441 kts | 203° |
| 2026-05-08 13:10 | 49.46761 | 8.65152 | 38376 ft | 438 kts | 204° |
| 2026-05-08 13:10 | 49.43942 | 8.63477 | 38582 ft | 436 kts | 204° |
| 2026-05-08 13:11 | 49.41112 | 8.61805 | 38744 ft | 436 kts | 204° |
| 2026-05-08 13:11 | 49.38262 | 8.60130 | 38885 ft | 437 kts | 204° |
| 2026-05-08 13:11 | 49.35430 | 8.58476 | 39024 ft | 437 kts | 203° |
| 2026-05-08 13:11 | 49.32605 | 8.56830 | 39051 ft | 437 kts | 204° |
| 2026-05-08 13:12 | 49.26945 | 8.53546 | 39054 ft | 437 kts | 203° |
| 2026-05-08 13:12 | 49.21246 | 8.50251 | 39054 ft | 437 kts | 203° |
| 2026-05-08 13:13 | 49.15584 | 8.46988 | 39048 ft | 438 kts | 203° |
| 2026-05-08 13:13 | 49.09883 | 8.43711 | 39044 ft | 438 kts | 203° |
| 2026-05-08 13:14 | 49.04214 | 8.40460 | 39040 ft | 438 kts | 203° |
| 2026-05-08 13:14 | 48.98519 | 8.37202 | 39038 ft | 438 kts | 203° |
| 2026-05-08 13:15 | 48.92832 | 8.33957 | 39039 ft | 438 kts | 202° |
| 2026-05-08 13:15 | 48.87125 | 8.30709 | 39037 ft | 438 kts | 202° |
| 2026-05-08 13:16 | 48.81432 | 8.27477 | 39033 ft | 438 kts | 202° |
| 2026-05-08 13:16 | 48.75761 | 8.24265 | 39027 ft | 437 kts | 202° |
| 2026-05-08 13:17 | 48.70074 | 8.21049 | 39025 ft | 437 kts | 202° |
| 2026-05-08 13:17 | 48.64363 | 8.17829 | 39027 ft | 437 kts | 202° |
| 2026-05-08 13:18 | 48.58693 | 8.14641 | 39031 ft | 437 kts | 202° |
| 2026-05-08 13:18 | 48.53010 | 8.11453 | 39029 ft | 437 kts | 202° |
| 2026-05-08 13:19 | 48.47319 | 8.08267 | 39028 ft | 438 kts | 202° |
| 2026-05-08 13:19 | 48.41615 | 8.05083 | 39029 ft | 438 kts | 202° |
| 2026-05-08 13:20 | 48.35910 | 8.01906 | 39023 ft | 437 kts | 202° |
| 2026-05-08 13:20 | 48.30230 | 7.98749 | 39027 ft | 438 kts | 203° |
| 2026-05-08 13:21 | 48.24519 | 7.95582 | 39025 ft | 437 kts | 202° |
| 2026-05-08 13:21 | 48.18831 | 7.92436 | 39027 ft | 437 kts | 202° |
| 2026-05-08 13:22 | 48.13149 | 7.89303 | 39026 ft | 437 kts | 202° |
| 2026-05-08 13:22 | 48.07488 | 7.86189 | 39024 ft | 437 kts | 203° |
| 2026-05-08 13:23 | 48.01801 | 7.83064 | 39019 ft | 437 kts | 203° |
| 2026-05-08 13:23 | 47.96095 | 7.79937 | 39017 ft | 437 kts | 203° |
| 2026-05-08 13:24 | 47.90410 | 7.76830 | 39022 ft | 437 kts | 203° |
| 2026-05-08 13:24 | 47.84715 | 7.73725 | 39025 ft | 437 kts | 203° |
| 2026-05-08 13:25 | 47.79025 | 7.70628 | 39027 ft | 436 kts | 203° |
| 2026-05-08 13:25 | 47.73331 | 7.67538 | 39034 ft | 436 kts | 203° |
| 2026-05-08 13:26 | 47.67601 | 7.64437 | 39036 ft | 436 kts | 203° |
| 2026-05-08 13:26 | 47.61909 | 7.61363 | 39022 ft | 436 kts | 203° |
| 2026-05-08 13:27 | 47.56234 | 7.58304 | 39029 ft | 437 kts | 203° |
| 2026-05-08 13:27 | 47.50522 | 7.55234 | 39018 ft | 436 kts | 203° |
| 2026-05-08 13:28 | 47.44858 | 7.52196 | 39019 ft | 436 kts | 203° |
| 2026-05-08 13:28 | 47.39171 | 7.49153 | 39028 ft | 436 kts | 203° |
| 2026-05-08 13:29 | 47.33450 | 7.46100 | 39027 ft | 436 kts | 203° |
| 2026-05-08 13:29 | 47.27762 | 7.43071 | 39040 ft | 436 kts | 203° |
| 2026-05-08 13:30 | 47.22172 | 7.39720 | 39046 ft | 434 kts | 210° |
| 2026-05-08 13:30 | 47.17059 | 7.35121 | 39041 ft | 431 kts | 219° |
| 2026-05-08 13:31 | 47.12549 | 7.29351 | 39036 ft | 429 kts | 227° |
| 2026-05-08 13:31 | 47.08728 | 7.22734 | 39034 ft | 428 kts | 233° |
| 2026-05-08 13:32 | 47.05034 | 7.15919 | 39030 ft | 427 kts | 233° |
| 2026-05-08 13:32 | 47.01344 | 7.09148 | 39028 ft | 427 kts | 233° |
| 2026-05-08 13:33 | 46.97622 | 7.02346 | 39019 ft | 426 kts | 233° |
| 2026-05-08 13:33 | 46.93892 | 6.95601 | 39023 ft | 427 kts | 231° |
| 2026-05-08 13:34 | 46.89844 | 6.89342 | 39032 ft | 428 kts | 226° |
| 2026-05-08 13:34 | 46.85334 | 6.83661 | 39037 ft | 430 kts | 222° |
| 2026-05-08 13:35 | 46.80698 | 6.78134 | 39045 ft | 430 kts | 222° |
| 2026-05-08 13:35 | 46.76107 | 6.72670 | 39036 ft | 429 kts | 222° |
| 2026-05-08 13:36 | 46.71461 | 6.67157 | 39036 ft | 429 kts | 222° |
| 2026-05-08 13:36 | 46.66847 | 6.61699 | 39024 ft | 429 kts | 222° |
| 2026-05-08 13:37 | 46.62194 | 6.56205 | 39033 ft | 429 kts | 222° |
| 2026-05-08 13:37 | 46.57571 | 6.50760 | 39030 ft | 429 kts | 222° |
| 2026-05-08 13:38 | 46.52967 | 6.45353 | 39025 ft | 429 kts | 222° |
| 2026-05-08 13:38 | 46.48334 | 6.39920 | 39024 ft | 428 kts | 223° |
| 2026-05-08 13:39 | 46.43725 | 6.34525 | 39050 ft | 428 kts | 222° |
| 2026-05-08 13:39 | 46.39068 | 6.29091 | 39023 ft | 428 kts | 222° |
| 2026-05-08 13:40 | 46.34457 | 6.23723 | 39033 ft | 428 kts | 222° |
| 2026-05-08 13:40 | 46.29637 | 6.18598 | 39020 ft | 432 kts | 215° |
| 2026-05-08 13:41 | 46.24300 | 6.14590 | 39024 ft | 436 kts | 206° |
| 2026-05-08 13:41 | 46.18530 | 6.11854 | 39011 ft | 442 kts | 197° |
| 2026-05-08 13:42 | 46.12487 | 6.10309 | 39017 ft | 443 kts | 193° |
| 2026-05-08 13:42 | 46.06390 | 6.08967 | 39025 ft | 443 kts | 193° |
| 2026-05-08 13:43 | 46.00315 | 6.07627 | 39022 ft | 443 kts | 193° |
| 2026-05-08 13:43 | 45.94241 | 6.06284 | 39012 ft | 444 kts | 193° |
| 2026-05-08 13:44 | 45.88127 | 6.04931 | 39016 ft | 443 kts | 193° |
| 2026-05-08 13:44 | 45.82046 | 6.03584 | 39004 ft | 443 kts | 193° |
| 2026-05-08 13:45 | 45.75969 | 6.02237 | 39006 ft | 443 kts | 193° |
| 2026-05-08 13:45 | 45.69905 | 6.00899 | 39010 ft | 443 kts | 193° |
| 2026-05-08 13:46 | 45.63797 | 5.99557 | 39005 ft | 443 kts | 193° |
| 2026-05-08 13:46 | 45.57741 | 5.98232 | 38998 ft | 442 kts | 193° |
| 2026-05-08 13:47 | 45.51676 | 5.96907 | 39005 ft | 443 kts | 193° |
| 2026-05-08 13:47 | 45.45641 | 5.95387 | 39004 ft | 440 kts | 197° |
| 2026-05-08 13:48 | 45.39659 | 5.93505 | 39032 ft | 441 kts | 197° |
| 2026-05-08 13:48 | 45.33674 | 5.91639 | 39045 ft | 441 kts | 198° |
| 2026-05-08 13:49 | 45.27668 | 5.89771 | 39070 ft | 439 kts | 198° |
| 2026-05-08 13:49 | 45.21719 | 5.87920 | 39063 ft | 440 kts | 198° |
| 2026-05-08 13:50 | 45.15743 | 5.86067 | 39071 ft | 440 kts | 198° |
| 2026-05-08 13:50 | 45.09770 | 5.84219 | 39067 ft | 439 kts | 198° |
| 2026-05-08 13:51 | 45.03812 | 5.82379 | 39068 ft | 439 kts | 198° |
| 2026-05-08 13:51 | 44.97877 | 5.80551 | 39081 ft | 438 kts | 198° |
| 2026-05-08 13:52 | 44.91955 | 5.78730 | 39055 ft | 438 kts | 198° |
| 2026-05-08 13:52 | 44.85977 | 5.76893 | 39068 ft | 438 kts | 198° |
| 2026-05-08 13:53 | 44.80064 | 5.75084 | 39064 ft | 437 kts | 198° |
| 2026-05-08 13:53 | 44.74107 | 5.73266 | 39044 ft | 436 kts | 198° |
| 2026-05-08 13:54 | 44.68171 | 5.71455 | 39050 ft | 436 kts | 198° |
| 2026-05-08 13:54 | 44.62281 | 5.69665 | 39051 ft | 435 kts | 198° |
| 2026-05-08 13:55 | 44.56381 | 5.67874 | 39047 ft | 434 kts | 198° |
| 2026-05-08 13:56 | 44.47509 | 5.65188 | 39039 ft | 434 kts | 198° |
| 2026-05-08 13:56 | 44.41645 | 5.63409 | 39048 ft | 433 kts | 199° |
| 2026-05-08 13:57 | 44.35897 | 5.61095 | 39041 ft | 428 kts | 205° |
| 2026-05-08 13:57 | 44.30370 | 5.58123 | 39042 ft | 426 kts | 207° |
| 2026-05-08 13:58 | 44.24841 | 5.55103 | 39030 ft | 425 kts | 207° |
| 2026-05-08 13:58 | 44.19360 | 5.52110 | 39049 ft | 424 kts | 207° |
| 2026-05-08 13:59 | 44.13856 | 5.49111 | 39029 ft | 424 kts | 206° |
| 2026-05-08 13:59 | 44.08374 | 5.46131 | 39035 ft | 424 kts | 207° |
| 2026-05-08 14:00 | 44.02891 | 5.43153 | 39030 ft | 424 kts | 206° |
| 2026-05-08 14:00 | 43.97391 | 5.40175 | 39025 ft | 423 kts | 207° |
| 2026-05-08 14:01 | 43.91918 | 5.37208 | 39018 ft | 422 kts | 206° |
| 2026-05-08 14:01 | 43.86497 | 5.34276 | 39011 ft | 421 kts | 206° |
| 2026-05-08 14:02 | 43.81028 | 5.31324 | 39005 ft | 420 kts | 206° |
| 2026-05-08 14:02 | 43.75590 | 5.28398 | 38997 ft | 420 kts | 206° |
| 2026-05-08 14:03 | 43.70155 | 5.25478 | 38994 ft | 420 kts | 206° |
| 2026-05-08 14:03 | 43.64699 | 5.22551 | 39004 ft | 421 kts | 205° |
| 2026-05-08 14:04 | 43.59260 | 5.19641 | 39003 ft | 421 kts | 205° |
| 2026-05-08 14:04 | 43.53819 | 5.16738 | 39005 ft | 420 kts | 206° |
| 2026-05-08 14:05 | 43.48356 | 5.13827 | 39007 ft | 419 kts | 206° |
| 2026-05-08 14:05 | 43.42977 | 5.10917 | 39001 ft | 417 kts | 207° |
| 2026-05-08 14:06 | 43.37782 | 5.07427 | 39008 ft | 414 kts | 213° |
| 2026-05-08 14:06 | 43.32924 | 5.03257 | 39005 ft | 411 kts | 218° |
| 2026-05-08 14:07 | 43.28196 | 4.98810 | 39005 ft | 411 kts | 218° |
| 2026-05-08 14:07 | 43.23462 | 4.94367 | 39005 ft | 412 kts | 218° |
| 2026-05-08 14:08 | 43.18744 | 4.89943 | 39001 ft | 413 kts | 218° |
| 2026-05-08 14:08 | 43.14001 | 4.85500 | 39006 ft | 412 kts | 218° |
| 2026-05-08 14:09 | 43.09248 | 4.81059 | 39000 ft | 411 kts | 217° |
| 2026-05-08 14:09 | 43.04472 | 4.76824 | 39001 ft | 413 kts | 213° |
| 2026-05-08 14:10 | 42.99452 | 4.72997 | 39005 ft | 413 kts | 213° |
| 2026-05-08 14:10 | 42.94421 | 4.69171 | 39007 ft | 413 kts | 212° |
| 2026-05-08 14:11 | 42.89408 | 4.65375 | 38999 ft | 413 kts | 212° |
| 2026-05-08 14:11 | 42.84394 | 4.61587 | 39001 ft | 412 kts | 212° |
| 2026-05-08 14:12 | 42.79406 | 4.57826 | 39003 ft | 412 kts | 212° |
| 2026-05-08 14:12 | 42.74407 | 4.54064 | 39009 ft | 411 kts | 212° |
| 2026-05-08 14:13 | 42.69414 | 4.50315 | 39007 ft | 411 kts | 212° |
| 2026-05-08 14:13 | 42.64429 | 4.46577 | 38995 ft | 411 kts | 212° |
| 2026-05-08 14:14 | 42.59414 | 4.42826 | 39003 ft | 411 kts | 212° |
| 2026-05-08 14:14 | 42.54402 | 4.39082 | 39001 ft | 411 kts | 212° |
| 2026-05-08 14:15 | 42.49435 | 4.35379 | 38997 ft | 411 kts | 212° |
| 2026-05-08 14:15 | 42.44416 | 4.31645 | 38992 ft | 411 kts | 212° |
| 2026-05-08 14:16 | 42.39430 | 4.27944 | 38999 ft | 411 kts | 212° |
| 2026-05-08 14:16 | 42.34415 | 4.24228 | 39009 ft | 410 kts | 212° |
| 2026-05-08 14:17 | 42.29441 | 4.20545 | 39000 ft | 410 kts | 212° |
| 2026-05-08 14:17 | 42.24437 | 4.16849 | 38991 ft | 410 kts | 212° |
| 2026-05-08 14:18 | 42.19456 | 4.13178 | 38998 ft | 410 kts | 212° |
| 2026-05-08 14:18 | 42.14451 | 4.09495 | 38992 ft | 410 kts | 212° |
| 2026-05-08 14:19 | 42.09447 | 4.05818 | 39000 ft | 410 kts | 212° |
| 2026-05-08 14:19 | 42.04440 | 4.02149 | 38985 ft | 410 kts | 212° |
| 2026-05-08 14:20 | 41.99423 | 3.98498 | 39004 ft | 411 kts | 211° |
| 2026-05-08 14:20 | 41.94242 | 3.95346 | 38993 ft | 412 kts | 205° |
| 2026-05-08 14:21 | 41.88766 | 3.92891 | 39011 ft | 417 kts | 200° |
| 2026-05-08 14:21 | 41.83080 | 3.91199 | 38985 ft | 420 kts | 194° |
| 2026-05-08 14:22 | 41.77365 | 3.89879 | 38995 ft | 420 kts | 195° |
| 2026-05-08 14:22 | 41.71603 | 3.88542 | 38993 ft | 419 kts | 194° |
| 2026-05-08 14:23 | 41.65856 | 3.87215 | 38981 ft | 420 kts | 194° |
| 2026-05-08 14:23 | 41.60122 | 3.85898 | 38986 ft | 420 kts | 194° |
| 2026-05-08 14:24 | 41.54382 | 3.84574 | 38986 ft | 420 kts | 194° |
| 2026-05-08 14:24 | 41.48631 | 3.83255 | 38972 ft | 420 kts | 194° |
| 2026-05-08 14:25 | 41.42895 | 3.81941 | 38971 ft | 420 kts | 194° |
| 2026-05-08 14:25 | 41.37116 | 3.80622 | 38984 ft | 420 kts | 194° |
| 2026-05-08 14:26 | 41.31392 | 3.79319 | 38980 ft | 420 kts | 194° |
| 2026-05-08 14:26 | 41.25617 | 3.78006 | 38979 ft | 420 kts | 194° |
| 2026-05-08 14:27 | 41.19870 | 3.76692 | 38978 ft | 419 kts | 195° |
| 2026-05-08 14:27 | 41.14247 | 3.74869 | 38981 ft | 417 kts | 201° |
| 2026-05-08 14:28 | 41.08785 | 3.72284 | 38972 ft | 416 kts | 205° |
| 2026-05-08 14:28 | 41.03412 | 3.69519 | 38969 ft | 416 kts | 205° |
| 2026-05-08 14:29 | 40.98021 | 3.66755 | 38970 ft | 416 kts | 205° |
| 2026-05-08 14:29 | 40.92628 | 3.63990 | 38978 ft | 414 kts | 205° |
| 2026-05-08 14:30 | 40.87421 | 3.61320 | 38977 ft | 413 kts | 205° |
| 2026-05-08 14:30 | 40.82044 | 3.58570 | 38964 ft | 412 kts | 205° |
| 2026-05-08 14:31 | 40.76733 | 3.55858 | 38971 ft | 412 kts | 205° |
| 2026-05-08 14:31 | 40.74052 | 3.54490 | 38779 ft | 414 kts | 205° |
| 2026-05-08 14:31 | 40.71344 | 3.53107 | 37997 ft | 417 kts | 205° |
| 2026-05-08 14:32 | 40.65987 | 3.50379 | 36713 ft | 413 kts | 205° |
| 2026-05-08 14:32 | 40.63329 | 3.49029 | 36083 ft | 410 kts | 205° |
| 2026-05-08 14:32 | 40.60686 | 3.47689 | 35560 ft | 408 kts | 205° |
| 2026-05-08 14:32 | 40.58352 | 3.46505 | 35027 ft | 408 kts | 205° |
| 2026-05-08 14:33 | 40.55691 | 3.45154 | 34386 ft | 409 kts | 205° |
| 2026-05-08 14:33 | 40.53063 | 3.43822 | 33663 ft | 409 kts | 204° |
| 2026-05-08 14:33 | 40.50407 | 3.42512 | 32951 ft | 410 kts | 202° |
| 2026-05-08 14:33 | 40.47680 | 3.41417 | 32180 ft | 412 kts | 199° |
| 2026-05-08 14:34 | 40.44866 | 3.40574 | 31358 ft | 417 kts | 195° |
| 2026-05-08 14:34 | 40.41971 | 3.39994 | 30530 ft | 421 kts | 192° |
| 2026-05-08 14:34 | 40.39083 | 3.39698 | 29755 ft | 424 kts | 187° |
| 2026-05-08 14:34 | 40.36130 | 3.39685 | 29217 ft | 422 kts | 184° |
| 2026-05-08 14:35 | 40.33205 | 3.39835 | 28689 ft | 417 kts | 183° |
| 2026-05-08 14:35 | 40.30347 | 3.39993 | 28178 ft | 412 kts | 183° |
| 2026-05-08 14:35 | 40.27501 | 3.40156 | 27687 ft | 407 kts | 183° |
| 2026-05-08 14:35 | 40.24677 | 3.40315 | 27187 ft | 403 kts | 183° |
| 2026-05-08 14:36 | 40.21901 | 3.40470 | 26665 ft | 399 kts | 183° |
| 2026-05-08 14:36 | 40.19154 | 3.40628 | 26162 ft | 395 kts | 184° |
| 2026-05-08 14:36 | 40.16436 | 3.40782 | 25661 ft | 391 kts | 183° |
| 2026-05-08 14:36 | 40.13730 | 3.40934 | 25151 ft | 388 kts | 184° |
| 2026-05-08 14:37 | 40.11056 | 3.41086 | 24659 ft | 384 kts | 184° |
| 2026-05-08 14:37 | 40.08404 | 3.41233 | 24157 ft | 381 kts | 184° |
| 2026-05-08 14:37 | 40.05732 | 3.41382 | 23644 ft | 378 kts | 184° |
| 2026-05-08 14:37 | 40.03131 | 3.41527 | 23145 ft | 376 kts | 184° |
| 2026-05-08 14:38 | 40.00527 | 3.41673 | 22653 ft | 375 kts | 184° |
| 2026-05-08 14:38 | 39.97932 | 3.41818 | 22164 ft | 373 kts | 184° |
| 2026-05-08 14:38 | 39.95359 | 3.41963 | 21684 ft | 371 kts | 184° |
| 2026-05-08 14:38 | 39.92780 | 3.42108 | 21215 ft | 369 kts | 184° |
| 2026-05-08 14:39 | 39.90223 | 3.42254 | 20748 ft | 367 kts | 184° |
| 2026-05-08 14:39 | 39.87691 | 3.42396 | 20283 ft | 366 kts | 184° |
| 2026-05-08 14:39 | 39.85144 | 3.42539 | 19810 ft | 365 kts | 184° |
| 2026-05-08 14:39 | 39.82593 | 3.42683 | 19324 ft | 364 kts | 183° |
| 2026-05-08 14:40 | 39.80076 | 3.42825 | 18842 ft | 363 kts | 183° |
| 2026-05-08 14:40 | 39.77549 | 3.42965 | 18353 ft | 362 kts | 183° |
| 2026-05-08 14:40 | 39.75066 | 3.43104 | 17866 ft | 361 kts | 183° |
| 2026-05-08 14:40 | 39.72559 | 3.43051 | 17334 ft | 354 kts | 195° |
| 2026-05-08 14:41 | 39.70314 | 3.41921 | 16833 ft | 343 kts | 216° |
| 2026-05-08 14:41 | 39.68572 | 3.39879 | 16341 ft | 337 kts | 234° |
| 2026-05-08 14:41 | 39.67412 | 3.37254 | 15843 ft | 335 kts | 244° |
| 2026-05-08 14:41 | 39.66391 | 3.34588 | 15353 ft | 334 kts | 243° |
| 2026-05-08 14:42 | 39.65349 | 3.31894 | 14862 ft | 333 kts | 243° |
| 2026-05-08 14:42 | 39.64314 | 3.29218 | 14375 ft | 332 kts | 243° |
| 2026-05-08 14:42 | 39.63278 | 3.26540 | 13897 ft | 331 kts | 243° |
| 2026-05-08 14:42 | 39.62266 | 3.23922 | 13433 ft | 329 kts | 243° |
| 2026-05-08 14:43 | 39.61230 | 3.21247 | 12941 ft | 328 kts | 243° |
| 2026-05-08 14:43 | 39.60220 | 3.18641 | 12450 ft | 327 kts | 242° |
| 2026-05-08 14:43 | 39.59197 | 3.16003 | 11947 ft | 327 kts | 243° |
| 2026-05-08 14:43 | 39.58186 | 3.13396 | 11426 ft | 327 kts | 243° |
| 2026-05-08 14:44 | 39.57164 | 3.10757 | 10914 ft | 327 kts | 243° |
| 2026-05-08 14:44 | 39.56147 | 3.08134 | 10499 ft | 323 kts | 243° |
| 2026-05-08 14:44 | 39.55157 | 3.05583 | 10284 ft | 311 kts | 243° |
| 2026-05-08 14:44 | 39.54214 | 3.03159 | 10137 ft | 296 kts | 243° |
| 2026-05-08 14:45 | 39.53313 | 3.00842 | 9979 ft | 282 kts | 243° |
| 2026-05-08 14:45 | 39.52444 | 2.98610 | 9747 ft | 273 kts | 243° |
| 2026-05-08 14:45 | 39.51600 | 2.96449 | 9353 ft | 271 kts | 243° |
| 2026-05-08 14:45 | 39.50744 | 2.94257 | 8957 ft | 269 kts | 243° |
| 2026-05-08 14:46 | 39.49907 | 2.92114 | 8579 ft | 268 kts | 243° |
| 2026-05-08 14:46 | 39.49071 | 2.89978 | 8224 ft | 269 kts | 243° |
| 2026-05-08 14:46 | 39.48217 | 2.87795 | 7859 ft | 270 kts | 243° |
| 2026-05-08 14:46 | 39.47369 | 2.85629 | 7499 ft | 271 kts | 243° |
| 2026-05-08 14:47 | 39.46514 | 2.83448 | 7136 ft | 272 kts | 243° |
| 2026-05-08 14:47 | 39.45669 | 2.81289 | 6780 ft | 273 kts | 243° |
| 2026-05-08 14:47 | 39.44805 | 2.79087 | 6418 ft | 274 kts | 242° |
| 2026-05-08 14:47 | 39.43937 | 2.76888 | 6064 ft | 274 kts | 242° |
| 2026-05-08 14:48 | 39.43080 | 2.74725 | 5693 ft | 272 kts | 242° |
| 2026-05-08 14:48 | 39.42220 | 2.72546 | 5323 ft | 270 kts | 242° |
| 2026-05-08 14:48 | 39.41368 | 2.70400 | 4949 ft | 268 kts | 242° |
| 2026-05-08 14:48 | 39.40530 | 2.68288 | 4585 ft | 267 kts | 242° |
| 2026-05-08 14:49 | 39.39682 | 2.66138 | 4217 ft | 266 kts | 242° |
| 2026-05-08 14:49 | 39.38849 | 2.64023 | 3850 ft | 266 kts | 242° |
| 2026-05-08 14:49 | 39.38009 | 2.61898 | 3472 ft | 266 kts | 243° |
| 2026-05-08 14:49 | 39.37406 | 2.59639 | 3090 ft | 266 kts | 265° |
| 2026-05-08 14:50 | 39.37538 | 2.57338 | 2971 ft | 251 kts | 279° |
| 2026-05-08 14:50 | 39.37857 | 2.55204 | 2958 ft | 233 kts | 282° |
| 2026-05-08 14:50 | 39.38191 | 2.53235 | 2950 ft | 218 kts | 287° |
| 2026-05-08 14:50 | 39.38925 | 2.51586 | 2944 ft | 213 kts | 321° |
| 2026-05-08 14:51 | 39.40193 | 2.50747 | 2955 ft | 195 kts | 346° |
| 2026-05-08 14:51 | 39.41479 | 2.50372 | 2961 ft | 190 kts | 351° |
| 2026-05-08 14:51 | 39.42784 | 2.50071 | 3041 ft | 191 kts | 352° |
| 2026-05-08 14:51 | 39.44103 | 2.49997 | 2982 ft | 189 kts | 17° |
| 2026-05-08 14:52 | 39.45177 | 2.50917 | 2983 ft | 185 kts | 51° |
| 2026-05-08 14:52 | 39.46560 | 2.53713 | 2986 ft | 184 kts | 61° |
| 2026-05-08 14:52 | 39.47185 | 2.55098 | 2790 ft | 173 kts | 61° |
| 2026-05-08 14:53 | 39.47778 | 2.56382 | 2572 ft | 160 kts | 61° |
| 2026-05-08 14:53 | 39.48333 | 2.57568 | 2349 ft | 146 kts | 60° |
| 2026-05-08 14:53 | 39.48836 | 2.58634 | 2149 ft | 133 kts | 60° |
| 2026-05-08 14:53 | 39.49304 | 2.59623 | 1978 ft | 127 kts | 61° |
| 2026-05-08 14:54 | 39.49759 | 2.60585 | 1828 ft | 126 kts | 61° |
| 2026-05-08 14:54 | 39.50219 | 2.61558 | 1677 ft | 125 kts | 61° |
| 2026-05-08 14:54 | 39.50669 | 2.62512 | 1530 ft | 125 kts | 61° |
| 2026-05-08 14:54 | 39.51119 | 2.63479 | 1344 ft | 125 kts | 60° |
| 2026-05-08 14:55 | 39.51574 | 2.64443 | 1186 ft | 124 kts | 60° |
| 2026-05-08 14:55 | 39.52025 | 2.65392 | 1044 ft | 124 kts | 60° |
| 2026-05-08 14:55 | 39.52469 | 2.66349 | 872 ft | 124 kts | 59° |
| 2026-05-08 14:55 | 39.52916 | 2.67301 | 701 ft | 123 kts | 59° |
| 2026-05-08 14:56 | 39.53372 | 2.68240 | 544 ft | 123 kts | 59° |
| 2026-05-08 14:56 | 39.53817 | 2.69188 | 375 ft | 123 kts | 59° |
| 2026-05-08 14:56 | 39.54267 | 2.70145 | 211 ft | 127 kts | 58° |
| 2026-05-08 14:56 | 39.54739 | 2.71132 | 53 ft | 130 kts | 59° |
| 2026-05-08 14:57 | 39.55176 | 2.72049 | 14 ft | 102 kts | 58° |
| 2026-05-08 14:57 | 39.55461 | 2.72672 | 9 ft | 58 kts | 69° |
| 2026-05-08 14:57 | 39.55498 | 2.72987 | 14 ft | 14 kts | 90° |
| 2026-05-08 14:57 | 39.55497 | 2.73021 | 15 ft | 0 kts | 91° |
| 2026-05-08 14:58 | 39.55497 | 2.73025 | 15 ft | 0 kts | 91° |
| 2026-05-08 14:58 | 39.55497 | 2.73030 | 15 ft | 1 kts | 91° |
| 2026-05-08 14:58 | 39.55497 | 2.73031 | 15 ft | 0 kts | 91° |
| 2026-05-08 15:00 | 39.55497 | 2.73062 | 15 ft | 12 kts | 92° |
| 2026-05-08 15:00 | 39.55499 | 2.73159 | 16 ft | 11 kts | 81° |
| 2026-05-08 15:00 | 39.55533 | 2.73249 | 17 ft | 11 kts | 57° |
| 2026-05-08 15:00 | 39.55576 | 2.73339 | 18 ft | 12 kts | 59° |
| 2026-05-08 15:01 | 39.55621 | 2.73434 | 18 ft | 11 kts | 62° |
| 2026-05-08 15:01 | 39.55594 | 2.73521 | 20 ft | 11 kts | 147° |
| 2026-05-08 15:01 | 39.55510 | 2.73586 | 24 ft | 21 kts | 149° |
| 2026-05-08 15:01 | 39.55402 | 2.73672 | 32 ft | 15 kts | 148° |
| 2026-05-08 15:02 | 39.55318 | 2.73738 | 40 ft | 17 kts | 148° |
| 2026-05-08 15:02 | 39.55226 | 2.73811 | 44 ft | 12 kts | 148° |
| 2026-05-08 15:02 | 39.55169 | 2.73798 | 45 ft | 9 kts | 245° |
| 2026-05-08 15:02 | 39.55180 | 2.73710 | 46 ft | 10 kts | 271° |
| 2026-05-08 15:03 | 39.55142 | 2.73617 | 45 ft | 11 kts | 238° |
| 2026-05-08 15:03 | 39.55105 | 2.73573 | 43 ft | 3 kts | 174° |
| 2026-05-08 15:03 | 39.55074 | 2.73586 | 41 ft | 4 kts | 163° |
| 2026-05-08 15:03 | 39.55065 | 2.73589 | 41 ft | 0 kts | 163° |